Time;durP1;ratioP1;P1;durP2;ratioP2;P2;SDS_P1;SDS_P2;PMS_P1;PMS_P2;Temp;Humidity;BMP_temperature;BMP_pressure;BME280_temperature;BME280_humidity;BME280_pressure;Samples;Min_cycle;Max_cycle;Signal;HPM_P1;HPM_P2
2020/12/25 00:01:34;;;;;;;4.35;0.50;;;2.70;99.90;;;;;;4941310;28;20150;-82
2020/12/25 00:03:59;;;;;;;0.82;0.50;;;2.70;99.90;;;;;;4942185;28;20525;-83
2020/12/25 00:06:22;;;;;;;2.28;0.40;;;2.70;99.90;;;;;;4943991;27;20090;-82
2020/12/25 00:08:45;;;;;;;0.80;0.47;;;2.70;99.90;;;;;;4942803;27;20816;-81
2020/12/25 00:11:08;;;;;;;2.35;0.40;;;;;;;;;;4941282;28;20493;-81
2020/12/25 00:13:31;;;;;;;0.30;0.30;;;2.70;99.90;;;;;;4940988;28;20091;-83
2020/12/25 00:15:53;;;;;;;2.83;0.40;;;2.70;99.90;;;;;;4942135;28;20117;-81
2020/12/25 00:18:16;;;;;;;0.45;0.30;;;2.70;99.90;;;;;;4944377;27;20094;-82
2020/12/25 00:20:40;;;;;;;1.27;0.40;;;;;;;;;;4943773;28;22795;-82
2020/12/25 00:23:03;;;;;;;1.52;0.38;;;2.70;99.90;;;;;;4940499;28;20099;-82
2020/12/25 00:25:26;;;;;;;1.88;0.40;;;2.70;99.90;;;;;;4941690;27;20090;-82
2020/12/25 00:27:49;;;;;;;1.77;0.60;;;;;;;;;;4944840;28;20079;-83
2020/12/25 00:30:11;;;;;;;4.47;0.55;;;;;;;;;;4943569;27;20733;-82
2020/12/25 00:32:34;;;;;;;2.45;0.50;;;2.70;99.90;;;;;;4940318;28;20131;-82
2020/12/25 00:34:57;;;;;;;0.80;0.57;;;2.70;99.90;;;;;;4938361;28;20124;-82
2020/12/25 00:37:23;;;;;;;3.67;0.60;;;2.70;99.90;;;;;;4943630;27;20093;-81
2020/12/25 00:39:46;;;;;;;4.20;0.47;;;2.70;99.90;;;;;;4939672;28;20087;-82
2020/12/25 00:42:10;;;;;;;3.00;0.63;;;;;;;;;;4941404;28;20472;-82
2020/12/25 00:44:34;;;;;;;0.90;0.47;;;2.70;99.90;;;;;;4940060;28;20142;-82
2020/12/25 00:46:57;;;;;;;1.10;0.35;;;2.70;99.90;;;;;;4940920;28;20532;-82
2020/12/25 00:49:20;;;;;;;2.10;0.50;;;2.70;99.90;;;;;;4944466;27;20448;-82
2020/12/25 00:51:47;;;;;;;3.35;0.40;;;2.60;99.90;;;;;;4942297;27;20184;-83
2020/12/25 00:54:11;;;;;;;5.40;0.40;;;2.60;99.90;;;;;;4939541;28;20096;-82
2020/12/25 00:56:34;;;;;;;1.88;0.70;;;2.50;99.90;;;;;;4939820;28;20177;-82
2020/12/25 00:58:57;;;;;;;1.17;0.30;;;2.60;99.90;;;;;;4942929;28;20086;-81
2020/12/25 01:01:19;;;;;;;0.40;0.40;;;2.50;99.90;;;;;;4944646;27;20082;-81
2020/12/25 01:03:44;;;;;;;0.50;0.38;;;2.40;99.90;;;;;;4939346;28;20084;-82
2020/12/25 01:06:20;;;;;;;2.38;0.47;;;2.40;99.90;;;;;;4939599;28;20095;-79
2020/12/25 01:08:45;;;;;;;;;;;2.40;99.90;;;;;;4940849;28;20174;-80
2020/12/25 01:11:09;;;;;;;1.90;0.60;;;2.40;99.90;;;;;;4941558;28;19967;-82
2020/12/25 01:13:32;;;;;;;0.65;0.32;;;2.50;99.90;;;;;;4940709;28;20140;-81
2020/12/25 01:15:55;;;;;;;2.70;0.40;;;2.50;99.90;;;;;;4939526;28;20165;-82
2020/12/25 01:18:18;;;;;;;0.93;0.30;;;2.50;99.90;;;;;;4933626;27;20129;-82
2020/12/25 01:20:40;;;;;;;1.33;0.40;;;2.50;99.90;;;;;;4917621;28;20171;-81
2020/12/25 01:23:03;;;;;;;0.65;0.32;;;2.60;99.90;;;;;;4921479;28;20187;-81
2020/12/25 01:25:26;;;;;;;1.17;0.47;;;2.60;99.90;;;;;;4938891;27;20552;-82
2020/12/25 01:27:50;;;;;;;0.60;0.40;;;2.60;99.90;;;;;;4929809;27;20165;-81
2020/12/25 01:30:12;;;;;;;1.83;0.52;;;2.70;99.90;;;;;;4925874;27;20110;-81
2020/12/25 01:32:35;;;;;;;2.78;0.50;;;2.70;99.90;;;;;;4924210;28;20126;-81
2020/12/25 01:34:58;;;;;;;1.55;0.52;;;2.70;99.90;;;;;;4938450;28;20090;-80
2020/12/25 01:37:22;;;;;;;2.33;0.30;;;2.70;99.90;;;;;;4940436;28;20363;-81
2020/12/25 01:39:45;;;;;;;2.45;0.43;;;2.70;99.90;;;;;;4940795;28;20134;-82
2020/12/25 01:42:08;;;;;;;2.22;0.70;;;2.60;99.90;;;;;;4924760;27;20094;-81
2020/12/25 01:44:35;;;;;;;3.42;0.40;;;2.60;99.90;;;;;;4920963;27;20190;-82
2020/12/25 01:46:58;;;;;;;0.20;0.20;;;2.50;99.90;;;;;;4926572;27;20114;-81
2020/12/25 01:49:22;;;;;;;0.88;0.30;;;2.40;99.90;;;;;;4928947;28;20130;-82
2020/12/25 01:51:45;;;;;;;0.20;0.17;;;2.20;99.90;;;;;;4926489;28;20093;-82
2020/12/25 01:54:08;;;;;;;0.45;0.43;;;2.10;99.90;;;;;;4933798;27;20530;-81
2020/12/25 01:56:32;;;;;;;0.73;0.30;;;2.00;99.90;;;;;;4912527;28;20170;-82
2020/12/25 01:58:54;;;;;;;0.17;0.15;;;1.90;99.90;;;;;;4923316;28;20100;-82
2020/12/25 02:01:18;;;;;;;0.25;0.20;;;1.90;99.90;;;;;;4933408;28;20079;-81
2020/12/25 02:03:42;;;;;;;2.28;0.45;;;1.90;99.90;;;;;;4920191;28;20459;-80
2020/12/25 02:06:04;;;;;;;0.65;0.20;;;1.90;99.90;;;;;;4920280;27;20129;-81
2020/12/25 02:08:27;;;;;;;0.40;0.30;;;2.00;99.90;;;;;;4910287;27;20143;-82
2020/12/25 02:10:50;;;;;;;0.80;0.30;;;2.00;99.90;;;;;;4922591;28;20528;-81
2020/12/25 02:13:13;;;;;;;2.05;0.25;;;1.90;99.90;;;;;;4929402;28;20134;-81
2020/12/25 02:15:36;;;;;;;2.80;0.30;;;1.70;99.90;;;;;;4927774;28;20170;-81
2020/12/25 02:17:59;;;;;;;1.48;0.30;;;1.50;99.90;;;;;;4938917;28;20095;-82
2020/12/25 02:20:22;;;;;;;0.82;0.40;;;1.40;99.90;;;;;;4936034;28;20089;-82
2020/12/25 02:22:47;;;;;;;2.38;0.40;;;1.40;99.90;;;;;;4940090;28;20545;-82
2020/12/25 02:25:09;;;;;;;2.20;0.47;;;1.40;99.90;;;;;;4941888;28;20532;-83
2020/12/25 02:27:33;;;;;;;0.30;0.20;;;1.50;99.90;;;;;;4941689;28;20081;-81
2020/12/25 02:29:56;;;;;;;2.53;0.38;;;1.50;99.90;;;;;;4937991;28;20091;-82
2020/12/25 02:32:19;;;;;;;1.80;0.52;;;1.40;99.90;;;;;;4937851;28;20126;-82
2020/12/25 02:34:41;;;;;;;1.15;0.38;;;1.40;99.90;;;;;;4941912;28;20180;-81
2020/12/25 02:37:04;;;;;;;1.40;0.40;;;1.30;99.90;;;;;;4941338;28;20094;-82
2020/12/25 02:39:30;;;;;;;0.75;0.38;;;1.30;99.90;;;;;;4941345;28;20098;-81
2020/12/25 02:41:53;;;;;;;0.28;0.28;;;1.10;99.90;;;;;;4927846;28;20460;-82
2020/12/25 02:44:15;;;;;;;1.40;0.35;;;0.90;99.90;;;;;;4940218;28;20089;-81
2020/12/25 02:46:38;;;;;;;0.43;0.20;;;0.70;99.90;;;;;;4937310;28;20113;-82
2020/12/25 02:49:01;;;;;;;0.35;0.30;;;0.80;99.90;;;;;;4931919;27;20450;-82
2020/12/25 02:51:24;;;;;;;0.80;0.30;;;0.70;99.90;;;;;;4935555;27;20099;-81
2020/12/25 02:53:47;;;;;;;2.88;0.40;;;0.70;99.90;;;;;;4942726;28;20098;-82
2020/12/25 02:56:14;;;;;;;1.17;0.28;;;0.70;99.90;;;;;;4940528;28;20083;-82
2020/12/25 02:58:37;;;;;;;0.85;0.40;;;0.70;99.90;;;;;;4944161;28;20136;-82
2020/12/25 03:00:59;;;;;;;0.68;0.30;;;0.80;99.90;;;;;;4934760;28;20091;-81
2020/12/25 03:03:22;;;;;;;1.05;0.20;;;0.90;99.90;;;;;;4922063;28;20500;-82
2020/12/25 03:05:45;;;;;;;0.45;0.30;;;0.90;99.90;;;;;;4940657;27;20165;-81
2020/12/25 03:08:08;;;;;;;2.90;0.50;;;;;;;;;;4940424;28;20188;-81
2020/12/25 03:10:31;;;;;;;2.70;0.65;;;;;;;;;;4933778;28;20086;-81
2020/12/25 03:12:54;;;;;;;1.38;0.30;;;0.90;99.90;;;;;;4943443;28;20079;-81
2020/12/25 03:15:17;;;;;;;3.45;0.40;;;0.90;99.90;;;;;;4941322;28;20500;-82
2020/12/25 03:17:40;;;;;;;2.70;0.43;;;0.80;99.90;;;;;;4943305;27;20098;-82
2020/12/25 03:20:04;;;;;;;0.63;0.40;;;0.60;99.90;;;;;;4940044;28;20167;-80
2020/12/25 03:22:26;;;;;;;0.60;0.20;;;0.50;99.90;;;;;;4934456;27;20102;-82
2020/12/25 03:24:49;;;;;;;0.60;0.28;;;0.50;99.90;;;;;;4931647;27;20094;-81
2020/12/25 03:27:12;;;;;;;0.60;0.30;;;;;;;;;;4930260;27;20162;-81
2020/12/25 03:29:37;;;;;;;0.80;0.25;;;0.40;99.90;;;;;;4943549;28;20094;-81
2020/12/25 03:32:00;;;;;;;1.00;0.38;;;0.40;99.90;;;;;;4943983;28;20168;-81
2020/12/25 03:34:23;;;;;;;3.15;0.40;;;0.40;99.90;;;;;;4941428;27;20118;-81
2020/12/25 03:36:45;;;;;;;0.43;0.30;;;0.40;99.90;;;;;;4923594;28;20117;-82
2020/12/25 03:39:08;;;;;;;0.60;0.40;;;0.40;99.90;;;;;;4940703;27;20097;-81
2020/12/25 03:41:31;;;;;;;1.15;0.50;;;0.30;99.90;;;;;;4931907;28;20099;-81
2020/12/25 03:43:54;;;;;;;1.00;0.30;;;0.30;99.90;;;;;;4937869;28;20471;-82
2020/12/25 03:46:17;;;;;;;0.95;0.28;;;0.30;99.90;;;;;;4935833;28;20103;-82
2020/12/25 03:48:40;;;;;;;0.93;0.30;;;;;;;;;;4942410;28;20568;-82
2020/12/25 03:51:03;;;;;;;0.50;0.40;;;0.30;99.90;;;;;;4944262;28;20163;-82
2020/12/25 03:53:26;;;;;;;0.65;0.30;;;0.30;99.90;;;;;;4940610;27;20087;-81
2020/12/25 03:55:50;;;;;;;0.77;0.40;;;0.40;99.90;;;;;;4942163;28;20129;-81
2020/12/25 03:58:13;;;;;;;1.52;0.40;;;-0.70;99.90;;;;;;4916959;28;20097;-82
2020/12/25 04:00:35;;;;;;;1.02;0.20;;;0.30;99.90;;;;;;4932826;28;20097;-81
2020/12/25 04:02:59;;;;;;;0.75;0.30;;;0.40;99.90;;;;;;4944440;27;20178;-82
2020/12/25 04:05:22;;;;;;;1.83;0.30;;;0.50;99.90;;;;;;4940897;28;20491;-81
2020/12/25 04:07:45;;;;;;;6.53;0.30;;;0.60;99.90;;;;;;4937951;28;20563;-80
2020/12/25 04:10:07;;;;;;;4.80;0.52;;;0.60;99.90;;;;;;4944187;28;20086;-82
2020/12/25 04:12:30;;;;;;;0.45;0.30;;;0.60;99.90;;;;;;4913433;28;20095;-82
2020/12/25 04:14:53;;;;;;;0.32;0.30;;;;;;;;;;4943962;28;20172;-81
2020/12/25 04:17:16;;;;;;;3.55;0.20;;;0.70;99.90;;;;;;4940663;28;20543;-80
2020/12/25 04:19:39;;;;;;;0.50;0.30;;;;;;;;;;4940194;28;20543;-80
2020/12/25 04:22:02;;;;;;;1.73;0.30;;;0.70;99.90;;;;;;4935017;28;20104;-80
2020/12/25 04:24:25;;;;;;;2.20;0.28;;;0.70;99.90;;;;;;4944521;28;20444;-81
2020/12/25 04:26:49;;;;;;;3.60;0.50;;;0.70;99.90;;;;;;4942818;28;20135;-82
2020/12/25 04:29:12;;;;;;;0.82;0.40;;;0.60;99.90;;;;;;4912546;28;20186;-81
2020/12/25 04:31:34;;;;;;;0.57;0.28;;;0.60;99.90;;;;;;4922134;28;20178;-82
2020/12/25 04:33:57;;;;;;;2.30;0.30;;;0.60;99.90;;;;;;4940048;27;20100;-83
2020/12/25 04:36:21;;;;;;;0.10;0.10;;;0.50;99.90;;;;;;4941148;28;20086;-82
2020/12/25 04:38:44;;;;;;;0.93;0.50;;;0.50;99.90;;;;;;4927617;27;23643;-82
2020/12/25 04:41:07;;;;;;;3.33;0.43;;;0.50;99.90;;;;;;4940908;28;26748;-80
2020/12/25 04:43:31;;;;;;;6.70;0.20;;;1.20;99.90;;;;;;4939393;28;20094;-82
2020/12/25 04:45:55;;;;;;;0.30;0.20;;;0.40;99.90;;;;;;4942301;28;20105;-82
2020/12/25 04:48:20;;;;;;;2.13;0.40;;;0.50;99.90;;;;;;4942503;27;20185;-81
2020/12/25 04:50:42;;;;;;;3.88;0.40;;;0.50;99.90;;;;;;4939516;28;20114;-82
2020/12/25 04:53:06;;;;;;;0.57;0.20;;;0.40;99.90;;;;;;4941977;28;20575;-81
2020/12/25 04:55:29;;;;;;;4.00;0.47;;;0.40;99.90;;;;;;4938877;28;20095;-82
2020/12/25 04:57:53;;;;;;;0.20;0.20;;;0.40;99.90;;;;;;4939556;28;20174;-82
2020/12/25 05:00:20;;;;;;;0.50;0.20;;;0.40;99.90;;;;;;4940974;28;20093;-82
2020/12/25 05:02:42;;;;;;;2.90;0.32;;;0.30;99.90;;;;;;4943597;27;20101;-82
2020/12/25 05:05:05;;;;;;;3.25;0.43;;;0.30;99.90;;;;;;4938279;28;20180;-81
2020/12/25 05:07:31;;;;;;;3.88;0.30;;;0.20;99.90;;;;;;4940890;28;20165;-82
2020/12/25 05:09:58;;;;;;;4.40;0.55;;;0.20;99.90;;;;;;4931431;28;20085;-81
2020/12/25 05:12:21;;;;;;;0.40;0.20;;;0.10;99.90;;;;;;4940148;28;20098;-81
2020/12/25 05:14:44;;;;;;;2.70;0.30;;;0.10;99.90;;;;;;4939908;28;20099;-81
2020/12/25 05:17:11;;;;;;;0.57;0.38;;;0.20;99.90;;;;;;4942331;27;20086;-82
2020/12/25 05:19:33;;;;;;;1.40;0.28;;;0.20;99.90;;;;;;4932611;27;20172;-82
2020/12/25 05:21:58;;;;;;;0.82;0.82;;;0.20;99.90;;;;;;4939799;28;20101;-81
2020/12/25 05:24:21;;;;;;;0.82;0.30;;;0.30;99.90;;;;;;4937676;28;20479;-82
2020/12/25 05:26:52;;;;;;;1.23;0.30;;;0.30;99.90;;;;;;4939253;28;20097;-82
2020/12/25 05:29:16;;;;;;;0.55;0.28;;;0.20;99.90;;;;;;4937379;28;20090;-81
2020/12/25 05:31:38;;;;;;;0.30;0.20;;;;;;;;;;4940703;28;20096;-80
2020/12/25 05:34:02;;;;;;;1.58;0.30;;;0.30;99.90;;;;;;4926707;28;20173;-83
2020/12/25 05:36:30;;;;;;;5.18;0.40;;;0.20;99.90;;;;;;4938550;27;20179;-82
2020/12/25 05:38:53;;;;;;;0.68;0.40;;;0.40;99.90;;;;;;4939361;28;20111;-82
2020/12/25 05:41:16;;;;;;;0.52;0.35;;;0.40;99.90;;;;;;4943154;28;20093;-82
2020/12/25 05:43:46;;;;;;;0.85;0.38;;;0.50;99.90;;;;;;4939663;28;20516;-81
2020/12/25 05:46:13;;;;;;;1.15;0.40;;;0.40;99.90;;;;;;4940505;27;20102;-82
2020/12/25 05:48:37;;;;;;;0.88;0.28;;;0.40;99.90;;;;;;4937215;28;20136;-82
2020/12/25 05:50:59;;;;;;;3.20;0.43;;;0.40;99.90;;;;;;4942749;28;20079;-82
2020/12/25 05:53:22;;;;;;;0.70;0.40;;;0.30;99.90;;;;;;4940925;28;20111;-81
2020/12/25 05:55:46;;;;;;;0.63;0.35;;;0.40;99.90;;;;;;4940694;28;20096;-82
2020/12/25 05:58:13;;;;;;;3.08;0.43;;;0.30;99.90;;;;;;4941382;27;20614;-82
2020/12/25 06:00:40;;;;;;;1.05;0.55;;;0.30;99.90;;;;;;4942544;28;20165;-82
2020/12/25 06:03:03;;;;;;;0.77;0.32;;;0.30;99.90;;;;;;4939724;28;20466;-80
2020/12/25 06:05:26;;;;;;;1.65;0.40;;;0.20;99.90;;;;;;4936734;28;20161;-81
2020/12/25 06:07:51;;;;;;;1.75;0.30;;;0.10;99.90;;;;;;4937294;28;20089;-82
2020/12/25 06:10:16;;;;;;;5.90;0.47;;;0.00;99.90;;;;;;4939146;28;20494;-82
2020/12/25 06:12:42;;;;;;;2.58;0.47;;;0.00;99.90;;;;;;4940213;28;20094;-82
2020/12/25 06:15:06;;;;;;;;;;;0.10;99.90;;;;;;4943523;28;20089;-82
2020/12/25 06:17:32;;;;;;;5.55;0.40;;;0.10;99.90;;;;;;4938155;28;20050;-82
2020/12/25 06:20:01;;;;;;;0.70;0.50;;;0.10;99.90;;;;;;4940293;28;20192;-81
2020/12/25 06:22:31;;;;;;;0.70;0.30;;;0.10;99.90;;;;;;4940637;28;20095;-82
2020/12/25 06:24:59;;;;;;;0.50;0.40;;;-0.10;99.90;;;;;;4944611;28;20130;-82
2020/12/25 06:27:26;;;;;;;2.53;0.50;;;-0.20;99.90;;;;;;4942460;28;20086;-82
2020/12/25 06:29:49;;;;;;;1.23;0.50;;;;;;;;;;4945434;27;20120;-82
2020/12/25 06:32:13;;;;;;;1.23;0.30;;;-0.40;99.90;;;;;;4944672;28;20090;-82
2020/12/25 06:34:43;;;;;;;1.60;0.20;;;-0.50;99.90;;;;;;4945042;28;20097;-82
2020/12/25 06:37:11;;;;;;;0.57;0.28;;;-0.50;99.90;;;;;;4942617;28;20091;-82
2020/12/25 06:39:34;;;;;;;1.02;0.30;;;-0.60;99.90;;;;;;4943285;27;20099;-81
2020/12/25 06:41:58;;;;;;;1.02;0.20;;;-0.70;99.90;;;;;;4945414;28;20179;-82
2020/12/25 06:44:21;;;;;;;2.67;0.60;;;-0.70;99.90;;;;;;4944662;27;20090;-82
2020/12/25 06:46:48;;;;;;;8.25;1.20;;;-0.60;99.90;;;;;;4942006;28;20104;-81
2020/12/25 06:49:14;;;;;;;2.70;1.20;;;-0.60;99.90;;;;;;4942499;27;20177;-82
2020/12/25 06:51:42;;;;;;;6.05;0.95;;;-0.60;99.90;;;;;;4941755;28;20432;-82
2020/12/25 06:54:05;;;;;;;1.40;0.40;;;-0.60;99.90;;;;;;4942756;27;20592;-81
2020/12/25 06:56:28;;;;;;;8.60;0.73;;;-0.50;99.90;;;;;;4942553;28;20115;-82
2020/12/25 06:58:53;;;;;;;4.28;0.35;;;-0.50;99.90;;;;;;4943396;28;20173;-82
2020/12/25 07:01:18;;;;;;;0.98;0.47;;;-0.40;99.90;;;;;;4942892;28;20104;-82
2020/12/25 07:03:41;;;;;;;1.65;0.65;;;-0.40;99.90;;;;;;4943404;27;20108;-82
2020/12/25 07:06:05;;;;;;;0.63;0.30;;;-0.40;99.90;;;;;;4932680;28;20085;-81
2020/12/25 07:08:30;;;;;;;0.45;0.15;;;-0.30;99.90;;;;;;4941831;28;20247;-82
2020/12/25 07:10:59;;;;;;;0.68;0.20;;;-0.30;99.90;;;;;;4941601;27;20090;-81
2020/12/25 07:13:22;;;;;;;2.63;0.32;;;-0.30;99.90;;;;;;4922800;28;20555;-82
2020/12/25 07:15:46;;;;;;;1.27;0.40;;;-0.30;99.90;;;;;;4921762;28;20413;-82
2020/12/25 07:18:08;;;;;;;3.03;0.47;;;-0.40;99.90;;;;;;4923919;28;20097;-82
2020/12/25 07:20:32;;;;;;;5.32;0.40;;;-0.40;99.90;;;;;;4926311;28;20568;-82
2020/12/25 07:22:55;;;;;;;1.00;0.32;;;-0.60;99.90;;;;;;4924770;28;20089;-82
2020/12/25 07:25:18;;;;;;;0.35;0.20;;;-0.60;99.90;;;;;;4930485;27;20161;-82
2020/12/25 07:27:43;;;;;;;0.88;0.30;;;-0.70;99.90;;;;;;4922073;28;20089;-82
2020/12/25 07:30:06;;;;;;;1.08;0.20;;;-0.90;99.90;;;;;;4914825;28;20092;-82
2020/12/25 07:32:30;;;;;;;0.60;0.30;;;-0.90;99.90;;;;;;4944465;28;20087;-82
2020/12/25 07:34:53;;;;;;;1.35;0.30;;;-0.80;99.90;;;;;;4942775;27;20635;-82
2020/12/25 07:37:17;;;;;;;1.10;0.20;;;-0.80;99.90;;;;;;4943473;28;20121;-82
2020/12/25 07:39:39;;;;;;;4.38;0.28;;;-0.80;99.90;;;;;;4945742;28;20090;-81
2020/12/25 07:42:03;;;;;;;0.38;0.20;;;-0.80;99.90;;;;;;4943791;28;20463;-82
2020/12/25 07:44:26;;;;;;;0.20;0.20;;;-0.80;99.90;;;;;;4945261;27;20169;-81
2020/12/25 07:46:50;;;;;;;0.93;0.30;;;-0.80;99.90;;;;;;4943527;28;20166;-80
2020/12/25 07:49:13;;;;;;;0.40;0.20;;;;;;;;;;4944668;27;20081;-82
2020/12/25 07:51:36;;;;;;;1.85;0.30;;;-0.80;99.90;;;;;;4940125;28;20534;-82
2020/12/25 07:54:00;;;;;;;0.57;0.30;;;-0.80;99.90;;;;;;4943434;28;20522;-82
2020/12/25 07:56:27;;;;;;;2.13;0.30;;;-0.80;99.90;;;;;;4942208;27;20497;-82
2020/12/25 07:58:52;;;;;;;0.80;0.40;;;0.00;99.90;;;;;;4942309;28;20193;-81
2020/12/25 08:01:18;;;;;;;1.13;0.47;;;-0.70;99.90;;;;;;4943131;28;20566;-82
2020/12/25 08:03:40;;;;;;;0.80;0.47;;;-0.60;99.90;;;;;;4943266;27;20087;-82
2020/12/25 08:06:03;;;;;;;3.20;0.60;;;-0.50;99.90;;;;;;4940868;28;20101;-82
2020/12/25 08:08:26;;;;;;;1.02;0.43;;;-0.40;99.90;;;;;;4942177;28;20102;-81
2020/12/25 08:10:49;;;;;;;0.98;0.45;;;-0.30;99.90;;;;;;4940591;28;20094;-82
2020/12/25 08:13:15;;;;;;;0.57;0.50;;;-0.20;99.90;;;;;;4932822;28;20086;-82
2020/12/25 08:15:38;;;;;;;;;;;-0.20;99.90;;;;;;4932828;28;20207;-82
2020/12/25 08:18:04;;;;;;;1.80;0.45;;;0.00;99.90;;;;;;4942625;27;20055;-82
2020/12/25 08:20:27;;;;;;;1.58;0.60;;;0.00;99.90;;;;;;4943195;28;20094;-82
2020/12/25 08:22:50;;;;;;;0.57;0.25;;;0.10;99.90;;;;;;4942135;27;20146;-82
2020/12/25 08:25:13;;;;;;;1.50;0.50;;;0.00;99.90;;;;;;4942376;27;20531;-82
2020/12/25 08:27:37;;;;;;;1.52;0.40;;;0.10;99.90;;;;;;4941043;28;20098;-82
2020/12/25 08:30:05;;;;;;;1.20;0.63;;;0.00;99.90;;;;;;4940966;28;20162;-82
2020/12/25 08:32:32;;;;;;;0.55;0.47;;;;;;;;;;4940161;27;20171;-82
2020/12/25 08:35:11;;;;;;;3.42;0.70;;;-0.10;99.90;;;;;;4940827;28;20163;-83
2020/12/25 08:37:34;;;;;;;7.18;0.73;;;;;;;;;;4936406;28;20089;-81
2020/12/25 08:40:13;;;;;;;3.05;0.77;;;-0.30;99.90;;;;;;4938847;28;20178;-82
2020/12/25 08:42:36;;;;;;;3.40;1.08;;;-0.30;99.90;;;;;;4940209;27;20101;-82
2020/12/25 08:44:59;;;;;;;5.80;1.95;;;-0.20;99.90;;;;;;4941007;28;20115;-82
2020/12/25 08:47:23;;;;;;;1.95;0.88;;;0.00;99.90;;;;;;4930480;27;20125;-81
2020/12/25 08:49:55;;;;;;;2.35;0.80;;;0.10;99.90;;;;;;4941649;28;20453;-82
2020/12/25 08:52:22;;;;;;;1.00;0.60;;;0.20;99.90;;;;;;4939799;28;20525;-82
2020/12/25 08:54:56;;;;;;;3.88;1.00;;;0.30;99.90;;;;;;4932604;28;20181;-83
2020/12/25 08:57:18;;;;;;;7.82;1.10;;;0.50;99.90;;;;;;4941599;27;20081;-81
2020/12/25 08:59:41;;;;;;;2.55;0.98;;;0.60;99.90;;;;;;4903866;28;20163;-82
2020/12/25 09:02:23;;;;;;;4.00;1.80;;;0.70;99.90;;;;;;4892781;27;20092;-82
2020/12/25 09:04:50;;;;;;;5.63;1.30;;;0.80;99.90;;;;;;4880645;27;20098;-82
2020/12/25 09:07:15;;;;;;;5.03;1.08;;;;;;;;;;4875693;27;20521;-81
2020/12/25 09:09:51;;;;;;;4.35;1.10;;;0.80;99.90;;;;;;4894315;27;20090;-81
2020/12/25 09:12:19;;;;;;;2.95;0.80;;;0.80;99.90;;;;;;4870503;27;20188;-82
2020/12/25 09:14:53;;;;;;;1.17;0.50;;;1.00;99.90;;;;;;4870314;28;20086;-83
2020/12/25 09:17:52;;;;;;;0.88;0.43;;;1.10;99.90;;;;;;4851965;28;20091;-82
2020/12/25 09:20:37;;;;;;;6.82;0.63;;;1.30;99.90;;;;;;4883212;27;20099;-81
2020/12/25 09:26:50;;;;;;;1.08;0.60;;;1.50;99.90;;;;;;4860040;28;20082;-83
2020/12/25 09:32:52;;;;;;;5.30;1.55;;;1.60;99.90;;;;;;4877672;27;20590;-84
2020/12/25 09:35:22;;;;;;;5.28;1.75;;;1.50;99.90;;;;;;4886412;27;20558;-81
2020/12/25 09:45:16;;;;;;;4.38;1.23;;;1.70;99.90;;;;;;4878213;28;20141;-82
2020/12/25 10:08:06;;;;;;;2.20;0.50;;;2.30;99.90;;;;;;4879799;28;21047;-82
2020/12/25 10:18:07;;;;;;;5.97;0.70;;;2.60;99.90;;;;;;4887824;28;20102;-80
2020/12/25 10:35:09;;;;;;;5.05;1.10;;;2.70;99.90;;;;;;4883322;28;22461;-82
2020/12/25 10:44:31;;;;;;;4.13;1.02;;;2.70;99.90;;;;;;4865391;28;20086;-82
2020/12/25 10:46:59;;;;;;;6.65;1.50;;;2.80;99.90;;;;;;4929780;28;20119;-80
2020/12/25 10:49:24;;;;;;;6.50;1.08;;;2.70;99.90;;;;;;4936519;28;20091;-80
2020/12/25 10:51:47;;;;;;;5.68;1.00;;;2.70;99.90;;;;;;4920989;28;20129;-81
2020/12/25 10:54:10;;;;;;;7.15;0.85;;;2.90;99.90;;;;;;4934434;28;20081;-80
2020/12/25 10:56:35;;;;;;;0.90;0.57;;;;;;;;;;4944838;28;20524;-81
2020/12/25 10:59:00;;;;;;;2.57;1.07;;;3.00;99.90;;;;;;4926832;28;20487;-85
2020/12/25 11:01:24;;;;;;;7.15;1.20;;;3.10;99.90;;;;;;4920171;28;20600;-81
2020/12/25 11:03:47;;;;;;;2.70;0.85;;;2.90;99.90;;;;;;4931029;28;20143;-83
2020/12/25 11:06:10;;;;;;;1.65;0.68;;;2.90;99.90;;;;;;4926923;28;20095;-81
2020/12/25 11:08:34;;;;;;;7.50;1.20;;;2.80;99.90;;;;;;4927644;28;20265;-83
2020/12/25 11:10:57;;;;;;;6.10;0.73;;;2.70;99.90;;;;;;4940604;28;20075;-82
2020/12/25 11:13:21;;;;;;;2.67;0.65;;;2.70;99.90;;;;;;4941565;28;20186;-80
2020/12/25 11:15:46;;;;;;;0.68;0.50;;;2.80;99.90;;;;;;4943437;27;20171;-83
2020/12/25 11:18:10;;;;;;;3.20;0.67;;;2.80;99.90;;;;;;4940587;27;20506;-82
2020/12/25 11:20:34;;;;;;;2.50;0.50;;;2.90;99.90;;;;;;4905924;28;20179;-83
2020/12/25 11:22:58;;;;;;;1.38;0.55;;;2.90;99.90;;;;;;4923103;28;20170;-81
2020/12/25 11:25:21;;;;;;;2.05;0.57;;;3.10;99.90;;;;;;4927867;28;20487;-85
2020/12/25 11:27:44;;;;;;;1.05;0.60;;;3.20;99.90;;;;;;4921615;28;20090;-83
2020/12/25 11:30:14;;;;;;;4.65;0.73;;;;;;;;;;4927626;28;20496;-82
2020/12/25 11:32:40;;;;;;;1.23;0.55;;;3.40;99.90;;;;;;4932129;28;20094;-83
2020/12/25 11:35:04;;;;;;;1.50;0.40;;;3.40;99.90;;;;;;4924664;28;20099;-82
2020/12/25 11:37:27;;;;;;;2.42;0.40;;;3.40;99.90;;;;;;4904791;28;20090;-81
2020/12/25 11:39:58;;;;;;;2.45;0.40;;;3.30;99.90;;;;;;4913341;28;20087;-81
2020/12/25 11:42:21;;;;;;;2.33;0.40;;;3.30;99.90;;;;;;4901340;28;20530;-81
2020/12/25 11:44:43;;;;;;;1.25;0.43;;;3.10;99.90;;;;;;4907742;28;20192;-81
2020/12/25 11:47:07;;;;;;;1.48;0.55;;;3.00;99.90;;;;;;4916179;28;20174;-81
2020/12/25 11:49:38;;;;;;;3.00;0.60;;;3.00;99.90;;;;;;4916529;28;20551;-83
2020/12/25 11:52:00;;;;;;;2.05;0.47;;;3.10;99.90;;;;;;4902389;28;20596;-83
2020/12/25 11:54:24;;;;;;;3.15;0.88;;;3.10;99.90;;;;;;4904392;28;20117;-82
2020/12/25 11:56:47;;;;;;;1.27;0.47;;;3.10;99.90;;;;;;4904004;28;20182;-82
2020/12/25 11:59:11;;;;;;;10.35;0.77;;;3.00;99.90;;;;;;4902075;28;20095;-82
2020/12/25 12:01:37;;;;;;;7.13;0.52;;;3.10;99.90;;;;;;4911224;28;20096;-81
2020/12/25 12:04:03;;;;;;;4.70;0.50;;;3.10;99.90;;;;;;4908414;28;20097;-83
2020/12/25 12:06:27;;;;;;;2.78;0.60;;;3.10;99.90;;;;;;4902656;28;20083;-81
2020/12/25 12:08:52;;;;;;;1.08;0.50;;;3.30;99.90;;;;;;4907185;28;20534;-81
2020/12/25 12:11:15;;;;;;;4.83;0.50;;;3.20;99.90;;;;;;4902024;28;20459;-82
2020/12/25 12:13:42;;;;;;;1.90;0.38;;;3.20;99.90;;;;;;4901578;28;20106;-83
2020/12/25 12:16:04;;;;;;;1.45;0.55;;;3.10;99.90;;;;;;4926509;28;20098;-83
2020/12/25 12:18:27;;;;;;;4.93;0.88;;;3.00;99.90;;;;;;4911824;28;20131;-83
2020/12/25 12:20:52;;;;;;;2.97;1.17;;;;;;;;;;4900078;28;20161;-83
2020/12/25 12:23:15;;;;;;;3.43;1.00;;;3.00;99.90;;;;;;4922018;28;20175;-83
2020/12/25 12:25:38;;;;;;;8.52;1.80;;;3.10;99.90;;;;;;4900825;28;20091;-83
2020/12/25 12:28:00;;;;;;;3.95;0.82;;;3.10;99.90;;;;;;4896406;28;20105;-81
2020/12/25 12:30:25;;;;;;;4.70;0.80;;;3.10;99.90;;;;;;4902479;28;20170;-82
2020/12/25 12:32:48;;;;;;;6.40;0.73;;;3.00;99.90;;;;;;4916270;28;20115;-82
2020/12/25 12:35:12;;;;;;;4.25;0.40;;;3.00;99.90;;;;;;4923295;28;20096;-82
2020/12/25 12:37:38;;;;;;;2.53;0.30;;;;;;;;;;4903059;28;20123;-83
2020/12/25 12:40:01;;;;;;;0.68;0.40;;;;;;;;;;4901971;28;20098;-82
2020/12/25 12:42:23;;;;;;;1.58;0.60;;;2.90;99.90;;;;;;4907305;28;20120;-83
2020/12/25 12:44:46;;;;;;;0.73;0.40;;;2.90;99.90;;;;;;4903489;28;20105;-82
2020/12/25 12:47:09;;;;;;;4.25;0.65;;;3.00;99.90;;;;;;4903715;28;20482;-82
2020/12/25 12:49:33;;;;;;;0.28;0.28;;;2.90;99.90;;;;;;4916865;28;20090;-83
2020/12/25 12:51:55;;;;;;;2.92;0.40;;;2.90;99.90;;;;;;4897134;28;20099;-82
2020/12/25 12:54:22;;;;;;;5.10;0.38;;;;;;;;;;4900045;28;20189;-83
2020/12/25 12:56:45;;;;;;;1.02;0.50;;;2.90;99.90;;;;;;4900197;28;20091;-82
2020/12/25 12:59:07;;;;;;;2.05;0.55;;;2.80;99.90;;;;;;4920689;28;20107;-81
2020/12/25 13:01:30;;;;;;;0.70;0.28;;;2.80;99.90;;;;;;4912751;28;20084;-81
2020/12/25 13:03:53;;;;;;;0.52;0.43;;;2.80;99.90;;;;;;4898850;28;20114;-80
2020/12/25 13:06:16;;;;;;;1.77;0.65;;;2.80;99.90;;;;;;4908534;28;20129;-83
2020/12/25 13:08:40;;;;;;;0.57;0.38;;;2.70;99.90;;;;;;4912698;28;20097;-83
2020/12/25 13:11:03;;;;;;;3.90;0.30;;;2.70;99.90;;;;;;4914469;28;20141;-83
2020/12/25 13:13:26;;;;;;;1.98;0.57;;;2.70;99.90;;;;;;4903982;28;20106;-81
2020/12/25 13:15:49;;;;;;;4.00;0.55;;;2.70;99.90;;;;;;4903592;28;20108;-85
2020/12/25 13:18:14;;;;;;;1.70;0.43;;;2.70;99.90;;;;;;4908351;28;20098;-84
2020/12/25 13:20:46;;;;;;;0.22;0.20;;;2.60;99.90;;;;;;4930632;28;20212;-84
2020/12/25 13:23:08;;;;;;;2.15;0.40;;;2.60;99.90;;;;;;4900042;28;20086;-81
2020/12/25 13:25:32;;;;;;;1.27;0.30;;;;;;;;;;4907119;28;20214;-81
2020/12/25 13:27:56;;;;;;;7.65;0.68;;;2.50;99.90;;;;;;4890610;28;20093;-81
2020/12/25 13:30:20;;;;;;;2.13;0.38;;;2.50;99.90;;;;;;4901686;28;20104;-83
2020/12/25 13:32:43;;;;;;;2.08;0.50;;;2.50;99.90;;;;;;4890442;28;20182;-81
2020/12/25 13:35:06;;;;;;;0.73;0.40;;;2.50;99.90;;;;;;4908251;28;20191;-82
2020/12/25 13:37:30;;;;;;;0.30;0.30;;;2.50;99.90;;;;;;4902789;28;20175;-83
2020/12/25 13:39:53;;;;;;;2.28;0.38;;;2.60;99.90;;;;;;4891768;28;20087;-83
2020/12/25 13:42:16;;;;;;;4.28;0.30;;;2.60;99.90;;;;;;4903114;28;20186;-82
2020/12/25 13:44:40;;;;;;;1.40;0.40;;;2.60;99.90;;;;;;4914492;28;20097;-82
2020/12/25 13:47:02;;;;;;;1.25;0.40;;;2.60;99.90;;;;;;4922764;28;20536;-83
2020/12/25 13:49:25;;;;;;;1.15;0.35;;;2.50;99.90;;;;;;4882207;28;20179;-82
2020/12/25 13:51:53;;;;;;;0.50;0.30;;;2.50;99.90;;;;;;4914989;28;20084;-83